createdAt,value
2019-03-04T00:00:17.519Z,13.65
2019-03-04T00:01:17.496Z,13.60
2019-03-04T00:02:17.472Z,13.64
2019-03-04T00:03:17.456Z,13.63
2019-03-04T00:04:17.439Z,13.58
2019-03-04T00:05:17.433Z,13.63
2019-03-04T00:06:17.402Z,13.63
2019-03-04T00:07:17.384Z,13.73
2019-03-04T00:08:17.373Z,13.58
2019-03-04T00:09:17.353Z,13.75
2019-03-04T00:10:17.329Z,13.68
2019-03-04T00:11:17.331Z,13.76
2019-03-04T00:12:17.299Z,13.68
2019-03-04T00:13:17.285Z,13.71
2019-03-04T00:14:17.263Z,13.75
2019-03-04T00:15:17.243Z,13.75
2019-03-04T00:16:17.223Z,13.72
2019-03-04T00:17:17.215Z,13.76
2019-03-04T00:18:17.189Z,13.67
2019-03-04T00:19:17.182Z,13.76
2019-03-04T00:20:17.163Z,13.71
2019-03-04T00:21:17.143Z,13.73
2019-03-04T00:22:17.118Z,13.73
2019-03-04T00:23:17.109Z,13.72
2019-03-04T00:24:17.084Z,13.67
2019-03-04T00:25:17.065Z,13.79
2019-03-04T00:26:17.048Z,13.73
2019-03-04T00:27:17.028Z,13.82
2019-03-04T00:28:17.013Z,13.85
2019-03-04T00:29:16.991Z,13.78
2019-03-04T00:30:16.979Z,13.83
2019-03-04T00:31:16.965Z,13.80
2019-03-04T00:32:16.940Z,13.88
2019-03-04T00:33:16.920Z,13.78
2019-03-04T00:34:16.898Z,13.78
2019-03-04T00:35:16.882Z,13.80
2019-03-04T00:36:16.878Z,13.78
2019-03-04T00:37:16.846Z,13.83
2019-03-04T00:38:16.828Z,13.79
2019-03-04T00:39:16.817Z,13.78
2019-03-04T00:40:16.795Z,13.76
2019-03-04T00:41:16.784Z,13.78
2019-03-04T00:42:16.760Z,13.78
2019-03-04T00:43:16.737Z,13.76
2019-03-04T00:44:16.721Z,13.76
2019-03-04T00:45:16.715Z,13.88
2019-03-04T00:46:16.689Z,13.86
2019-03-04T00:47:16.730Z,13.82
2019-03-04T00:48:16.649Z,13.85
2019-03-04T00:49:16.634Z,13.88
2019-03-04T00:50:16.612Z,13.85
2019-03-04T00:51:16.598Z,13.85
2019-03-04T00:52:16.577Z,13.82
2019-03-04T00:53:16.559Z,13.86
2019-03-04T00:54:16.545Z,13.82
2019-03-04T00:55:16.525Z,13.86
2019-03-04T00:56:16.506Z,13.91
2019-03-04T00:57:16.488Z,13.79
2019-03-04T00:58:16.477Z,13.79
2019-03-04T00:59:16.450Z,13.82
2019-03-04T01:00:16.432Z,13.88
2019-03-04T01:01:16.421Z,13.82
2019-03-04T01:02:16.399Z,13.80
2019-03-04T01:03:16.379Z,13.76
2019-03-04T01:04:16.372Z,13.85
2019-03-04T01:05:16.354Z,13.71
2019-03-04T01:06:16.326Z,13.73
2019-03-04T01:07:16.307Z,13.90
2019-03-04T01:08:16.290Z,13.76
2019-03-04T01:09:16.273Z,13.86
2019-03-04T01:10:16.259Z,13.71
2019-03-04T01:11:16.236Z,13.68
2019-03-04T01:12:16.219Z,13.73
2019-03-04T01:13:16.200Z,13.75
2019-03-04T01:14:16.185Z,13.75
2019-03-04T01:15:16.166Z,13.75
2019-03-04T01:16:16.149Z,13.76
2019-03-04T01:17:16.130Z,13.73
2019-03-04T01:18:16.115Z,13.71
2019-03-04T01:19:16.093Z,13.75
2019-03-04T01:20:16.075Z,13.79
2019-03-04T01:21:16.058Z,13.60
2019-03-04T01:22:16.037Z,13.71
2019-03-04T01:23:16.021Z,13.67
2019-03-04T01:24:16.004Z,13.71
2019-03-04T01:25:15.990Z,13.68
2019-03-04T01:26:15.968Z,13.68
2019-03-04T01:27:15.954Z,13.75
2019-03-04T01:28:15.936Z,13.76
2019-03-04T01:29:15.914Z,13.76
2019-03-04T01:30:15.897Z,13.78
2019-03-04T01:31:15.879Z,13.72
2019-03-04T01:32:15.861Z,13.71
2019-03-04T01:33:15.846Z,13.72
2019-03-04T01:34:15.822Z,13.78
2019-03-04T01:35:15.807Z,13.67
2019-03-04T01:36:15.792Z,13.68
2019-03-04T01:37:15.770Z,13.63
2019-03-04T01:38:15.754Z,13.68
2019-03-04T01:39:15.734Z,13.71
2019-03-04T01:40:15.719Z,13.73
2019-03-04T01:41:15.702Z,13.72
2019-03-04T01:42:15.682Z,13.75
2019-03-04T01:43:15.660Z,13.73
2019-03-04T01:44:15.643Z,13.67
2019-03-04T01:45:15.626Z,13.75
2019-03-04T01:46:16.988Z,13.73
2019-03-04T01:47:15.590Z,13.78
2019-03-04T01:48:15.573Z,13.65
2019-03-04T01:49:15.556Z,13.67
2019-03-04T01:50:15.536Z,13.65
2019-03-04T01:51:15.520Z,13.65
2019-03-04T01:52:15.498Z,13.67
2019-03-04T01:53:15.484Z,13.65
2019-03-04T01:54:15.464Z,13.63
2019-03-04T01:55:15.445Z,13.64
2019-03-04T01:56:15.435Z,13.67
2019-03-04T01:57:15.417Z,13.68
2019-03-04T01:58:15.395Z,13.63
2019-03-04T01:59:15.375Z,13.58
2019-03-04T02:00:15.357Z,13.67
2019-03-04T02:01:15.340Z,13.73
2019-03-04T02:02:15.327Z,13.73
2019-03-04T02:03:15.311Z,13.65
2019-03-04T02:04:15.282Z,13.65
2019-03-04T02:05:15.270Z,13.60
2019-03-04T02:06:15.251Z,13.60
2019-03-04T02:07:15.229Z,13.68
2019-03-04T02:08:15.215Z,13.63
2019-03-04T02:09:15.200Z,13.73
2019-03-04T02:10:15.174Z,13.72
2019-03-04T02:11:15.163Z,13.67
2019-03-04T02:12:15.143Z,13.67
2019-03-04T02:13:15.123Z,13.71
2019-03-04T02:14:15.104Z,13.67
2019-03-04T02:15:15.084Z,13.65
2019-03-04T02:16:15.067Z,13.63
2019-03-04T02:17:15.051Z,13.73
2019-03-04T02:18:15.036Z,13.67
2019-03-04T02:19:15.012Z,13.71
2019-03-04T02:20:15.031Z,13.72
2019-03-04T02:21:14.980Z,13.72
2019-03-04T02:22:14.958Z,13.72
2019-03-04T02:23:14.941Z,13.65
2019-03-04T02:24:14.922Z,13.76
2019-03-04T02:25:14.909Z,13.73
2019-03-04T02:26:14.888Z,13.72
2019-03-04T02:27:14.871Z,13.73
2019-03-04T02:28:14.853Z,13.75
2019-03-04T02:29:14.836Z,13.72
2019-03-04T02:30:14.816Z,13.73
2019-03-04T02:31:14.806Z,13.76
2019-03-04T02:32:14.783Z,13.78
2019-03-04T02:33:14.767Z,13.72
2019-03-04T02:34:14.744Z,13.72
2019-03-04T02:35:14.729Z,13.75
2019-03-04T02:36:14.709Z,13.73
2019-03-04T02:37:14.691Z,13.65
2019-03-04T02:38:14.674Z,13.65
2019-03-04T02:39:14.659Z,13.68
2019-03-04T02:40:14.643Z,13.71
2019-03-04T02:41:14.624Z,13.71
2019-03-04T02:42:14.608Z,13.71
2019-03-04T02:43:14.585Z,13.71
2019-03-04T02:44:14.566Z,13.73
2019-03-04T02:45:14.601Z,13.78
2019-03-04T02:46:14.531Z,13.75
2019-03-04T02:47:14.514Z,13.78
2019-03-04T02:48:14.494Z,13.79
2019-03-04T02:49:14.482Z,13.90
2019-03-04T02:50:14.458Z,13.80
2019-03-04T02:51:14.440Z,13.91
2019-03-04T02:52:14.419Z,13.85
2019-03-04T02:53:14.402Z,13.82
2019-03-04T02:54:14.385Z,13.90
2019-03-04T02:55:14.364Z,13.85
2019-03-04T02:56:14.373Z,13.88
2019-03-04T02:57:14.329Z,13.83
2019-03-04T02:58:14.312Z,13.88
2019-03-04T02:59:14.293Z,13.90
2019-03-04T03:00:14.282Z,13.80
2019-03-04T03:01:14.259Z,13.86
2019-03-04T03:02:14.243Z,13.88
2019-03-04T03:03:14.222Z,13.85
2019-03-04T03:04:14.203Z,13.85
2019-03-04T03:05:14.190Z,13.88
2019-03-04T03:06:14.168Z,13.88
2019-03-04T03:07:14.150Z,13.82
2019-03-04T03:08:14.130Z,13.82
2019-03-04T03:09:14.113Z,13.82
2019-03-04T03:10:14.100Z,13.82
2019-03-04T03:11:14.084Z,13.80
2019-03-04T03:12:14.067Z,13.86
2019-03-04T03:13:14.050Z,13.75
2019-03-04T03:14:14.028Z,13.78
2019-03-04T03:15:14.006Z,13.75
2019-03-04T03:16:13.988Z,13.75
2019-03-04T03:17:13.976Z,13.88
2019-03-04T03:18:13.962Z,13.79
2019-03-04T03:19:13.934Z,13.80
2019-03-04T03:20:13.933Z,13.65
2019-03-04T03:21:13.898Z,13.76
2019-03-04T03:22:13.894Z,13.73
2019-03-04T03:23:13.872Z,13.73
2019-03-04T03:24:13.844Z,13.73
2019-03-04T03:25:13.828Z,13.75
2019-03-04T03:26:13.808Z,13.76
2019-03-04T03:27:13.793Z,13.76
2019-03-04T03:28:13.780Z,13.75
2019-03-04T03:29:13.758Z,13.75
2019-03-04T03:30:13.770Z,13.76
2019-03-04T03:31:13.725Z,13.71
2019-03-04T03:32:13.719Z,13.71
2019-03-04T03:33:13.708Z,13.71
2019-03-04T03:34:13.670Z,13.72
2019-03-04T03:35:13.656Z,13.76
2019-03-04T03:36:13.632Z,13.67
2019-03-04T03:37:13.614Z,13.67
2019-03-04T03:38:13.594Z,13.73
2019-03-04T03:39:13.576Z,13.71
2019-03-04T03:40:13.565Z,13.71
2019-03-04T03:41:13.542Z,13.65
2019-03-04T03:42:13.540Z,13.67
2019-03-04T03:43:13.520Z,13.63
2019-03-04T03:44:13.488Z,13.60
2019-03-04T03:45:13.518Z,13.60
2019-03-04T03:46:13.450Z,13.61
2019-03-04T03:47:13.433Z,13.51
2019-03-04T03:48:13.424Z,13.57
2019-03-04T03:49:13.398Z,13.63
2019-03-04T03:50:13.390Z,13.54
2019-03-04T03:51:13.361Z,13.60
2019-03-04T03:52:13.344Z,13.60
2019-03-04T03:53:13.330Z,13.58
2019-03-04T03:54:13.338Z,13.58
2019-03-04T03:55:13.290Z,13.58
2019-03-04T03:56:13.278Z,13.60
2019-03-04T03:57:13.255Z,13.57
2019-03-04T03:58:13.251Z,13.58
2019-03-04T03:59:13.219Z,13.54
2019-03-04T04:00:13.213Z,13.58
2019-03-04T04:01:13.209Z,13.53
2019-03-04T04:02:13.164Z,13.54
2019-03-04T04:03:13.155Z,13.45
2019-03-04T04:04:13.128Z,13.43
2019-03-04T04:05:13.112Z,13.46
2019-03-04T04:06:13.091Z,13.45
2019-03-04T04:07:13.085Z,13.47
2019-03-04T04:08:13.055Z,13.40
2019-03-04T04:09:13.044Z,13.49
2019-03-04T04:10:13.031Z,13.51
2019-03-04T04:11:13.004Z,13.43
2019-03-04T04:12:12.986Z,13.47
2019-03-04T04:13:12.967Z,13.45
2019-03-04T04:14:12.951Z,13.49
2019-03-04T04:15:12.981Z,13.49
2019-03-04T04:16:12.912Z,13.51
2019-03-04T04:17:12.902Z,13.47
2019-03-04T04:18:12.877Z,13.45
2019-03-04T04:19:12.860Z,13.45
2019-03-04T04:20:12.848Z,13.53
2019-03-04T04:21:12.825Z,13.49
2019-03-04T04:22:12.803Z,13.47
2019-03-04T04:23:12.866Z,13.49
2019-03-04T04:24:12.771Z,13.47
2019-03-04T04:25:12.761Z,13.45
2019-03-04T04:26:12.734Z,13.47
2019-03-04T04:27:12.719Z,13.46
2019-03-04T04:28:12.697Z,13.53
2019-03-04T04:29:12.676Z,13.58
2019-03-04T04:30:12.667Z,13.57
2019-03-04T04:31:12.659Z,13.60
2019-03-04T04:32:12.630Z,13.63
2019-03-04T04:33:12.608Z,13.60
2019-03-04T04:34:12.587Z,13.57
2019-03-04T04:35:12.570Z,13.64
2019-03-04T04:36:12.551Z,13.60
2019-03-04T04:37:12.535Z,13.54
2019-03-04T04:38:12.516Z,13.73
2019-03-04T04:39:12.502Z,13.79
2019-03-04T04:40:12.492Z,13.73
2019-03-04T04:41:12.463Z,13.79
2019-03-04T04:42:12.443Z,13.85
2019-03-04T04:43:12.427Z,13.78
2019-03-04T04:44:12.408Z,13.83
2019-03-04T04:45:12.390Z,13.80
2019-03-04T04:46:12.376Z,13.82
2019-03-04T04:47:12.354Z,13.85
2019-03-04T04:48:12.336Z,13.97
2019-03-04T04:49:12.318Z,13.96
2019-03-04T04:50:12.302Z,14.11
2019-03-04T04:51:12.283Z,14.12
2019-03-04T04:52:12.262Z,14.21
2019-03-04T04:53:12.254Z,14.18
2019-03-04T04:54:12.231Z,14.13
2019-03-04T04:55:12.212Z,14.13
2019-03-04T04:56:12.195Z,14.05
2019-03-04T04:57:12.176Z,14.15
2019-03-04T04:58:12.156Z,14.15
2019-03-04T04:59:12.141Z,14.28
2019-03-04T05:00:12.121Z,14.27
2019-03-04T05:01:12.101Z,14.36
2019-03-04T05:02:12.082Z,14.31
2019-03-04T05:03:12.064Z,14.28
2019-03-04T05:04:12.046Z,14.28
2019-03-04T05:05:12.031Z,14.36
2019-03-04T05:06:13.096Z,14.28
2019-03-04T05:07:11.992Z,14.36
2019-03-04T05:08:11.974Z,14.38
2019-03-04T05:09:11.956Z,14.45
2019-03-04T05:10:11.938Z,14.44
2019-03-04T05:11:11.925Z,14.34
2019-03-04T05:12:11.903Z,14.41
2019-03-04T05:13:11.885Z,14.40
2019-03-04T05:14:11.866Z,14.30
2019-03-04T05:15:11.860Z,14.44
2019-03-04T05:16:11.833Z,14.41
2019-03-04T05:17:11.814Z,14.40
2019-03-04T05:18:11.795Z,14.41
2019-03-04T05:19:11.779Z,14.37
2019-03-04T05:20:11.762Z,14.40
2019-03-04T05:21:11.745Z,14.41
2019-03-04T05:22:11.724Z,14.36
2019-03-04T05:23:11.708Z,14.40
2019-03-04T05:24:11.689Z,14.36
2019-03-04T05:25:11.670Z,14.40
2019-03-04T05:26:11.656Z,14.38
2019-03-04T05:27:11.633Z,14.38
2019-03-04T05:28:11.616Z,14.40
2019-03-04T05:29:11.601Z,14.36
2019-03-04T05:30:11.580Z,14.34
2019-03-04T05:31:11.562Z,14.40
2019-03-04T05:32:11.545Z,14.55
2019-03-04T05:33:11.527Z,14.51
2019-03-04T05:34:11.508Z,14.44
2019-03-04T05:35:11.491Z,14.34
2019-03-04T05:36:11.475Z,14.46
2019-03-04T05:37:11.455Z,14.41
2019-03-04T05:38:11.438Z,14.40
2019-03-04T05:39:11.419Z,14.38
2019-03-04T05:40:11.401Z,14.40
2019-03-04T05:41:11.386Z,14.41
2019-03-04T05:42:11.369Z,14.55
2019-03-04T05:43:11.352Z,14.51
2019-03-04T05:44:11.330Z,14.48
2019-03-04T05:45:11.318Z,14.48
2019-03-04T05:46:11.300Z,14.38
2019-03-04T05:47:11.289Z,14.41
2019-03-04T05:48:11.261Z,14.48
2019-03-04T05:49:11.242Z,14.48
2019-03-04T05:50:11.226Z,14.53
2019-03-04T05:51:11.206Z,14.41
2019-03-04T05:52:11.194Z,14.49
2019-03-04T05:53:11.173Z,14.49
2019-03-04T05:54:11.156Z,14.52
2019-03-04T05:55:11.137Z,14.52
2019-03-04T05:56:11.126Z,14.56
2019-03-04T05:57:11.102Z,14.53
2019-03-04T05:58:11.086Z,14.55
2019-03-04T05:59:19.313Z,14.52
2019-03-04T06:00:11.050Z,14.52
2019-03-04T06:01:11.035Z,14.56
2019-03-04T06:02:11.016Z,14.59
2019-03-04T06:03:10.996Z,14.69
2019-03-04T06:04:10.992Z,14.56
2019-03-04T06:05:10.962Z,14.59
2019-03-04T06:06:10.941Z,14.53
2019-03-04T06:07:10.930Z,14.71
2019-03-04T06:08:10.910Z,14.71
2019-03-04T06:09:10.891Z,14.78
2019-03-04T06:10:10.871Z,14.73
2019-03-04T06:11:10.854Z,14.69
2019-03-04T06:12:10.839Z,14.66
2019-03-04T06:13:10.820Z,14.70
2019-03-04T06:14:10.805Z,14.70
2019-03-04T06:15:10.784Z,14.69
2019-03-04T06:16:10.775Z,14.67
2019-03-04T06:17:10.748Z,14.69
2019-03-04T06:18:10.730Z,14.74
2019-03-04T06:19:10.713Z,14.67
2019-03-04T06:20:10.694Z,14.58
2019-03-04T06:21:10.676Z,14.56
2019-03-04T06:22:10.658Z,14.56
2019-03-04T06:23:10.641Z,14.59
2019-03-04T06:24:10.624Z,14.64
2019-03-04T06:25:10.609Z,14.61
2019-03-04T06:26:10.589Z,14.59
2019-03-04T06:27:10.575Z,14.48
2019-03-04T06:28:10.559Z,14.38
2019-03-04T06:29:10.538Z,14.27
2019-03-04T06:30:10.517Z,14.11
2019-03-04T06:31:10.503Z,13.78
2019-03-04T06:32:10.494Z,13.46
2019-03-04T06:33:10.471Z,12.77
2019-03-04T06:34:10.447Z,12.11
2019-03-04T06:35:10.429Z,11.74
2019-03-04T06:36:10.426Z,11.80
2019-03-04T06:37:10.394Z,11.73
2019-03-04T06:38:10.374Z,11.79
2019-03-04T06:39:10.356Z,11.69
2019-03-04T06:40:10.337Z,11.76
2019-03-04T06:41:10.317Z,11.74
2019-03-04T06:42:10.302Z,11.70
2019-03-04T06:43:10.281Z,11.89
2019-03-04T06:44:10.265Z,11.82
2019-03-04T06:45:10.248Z,11.85
2019-03-04T06:46:10.224Z,11.88
2019-03-04T06:47:10.203Z,11.88
2019-03-04T06:48:10.186Z,11.84
2019-03-04T06:49:10.178Z,11.76
2019-03-04T06:50:10.153Z,11.67
2019-03-04T06:51:10.129Z,11.62
2019-03-04T06:52:10.110Z,11.54
2019-03-04T06:53:10.096Z,11.55
2019-03-04T06:54:10.074Z,11.51
2019-03-04T06:55:10.055Z,11.52
2019-03-04T06:56:10.038Z,11.45
2019-03-04T06:57:10.017Z,11.48
2019-03-04T06:58:10.001Z,11.38
2019-03-04T06:59:09.983Z,11.40
2019-03-04T07:00:09.965Z,11.22
2019-03-04T07:01:09.944Z,11.34
2019-03-04T07:02:09.927Z,11.41
2019-03-04T07:03:09.906Z,11.36
2019-03-04T07:04:09.882Z,11.41
2019-03-04T07:05:09.868Z,11.34
2019-03-04T07:06:09.846Z,11.38
2019-03-04T07:07:09.831Z,11.34
2019-03-04T07:08:09.815Z,11.41
2019-03-04T07:09:09.791Z,11.31
2019-03-04T07:10:09.770Z,11.19
2019-03-04T07:11:09.749Z,11.09
2019-03-04T07:12:09.733Z,11.03
2019-03-04T07:13:09.770Z,11.08
2019-03-04T07:14:09.701Z,11.11
2019-03-04T07:15:09.670Z,10.95
2019-03-04T07:16:09.653Z,11.04
2019-03-04T07:17:09.635Z,10.98
2019-03-04T07:18:09.612Z,10.97
2019-03-04T07:19:09.597Z,10.94
2019-03-04T07:20:09.571Z,10.91
2019-03-04T07:21:09.554Z,10.85
2019-03-04T07:22:11.092Z,10.82
2019-03-04T07:23:09.528Z,10.91
2019-03-04T07:24:09.499Z,10.79
2019-03-04T07:25:09.475Z,10.85
2019-03-04T07:26:09.461Z,10.86
2019-03-04T07:27:09.436Z,10.79
2019-03-04T07:28:09.455Z,10.76
2019-03-04T07:29:09.404Z,10.78
2019-03-04T07:30:09.386Z,10.93
2019-03-04T07:31:09.359Z,10.87
2019-03-04T07:32:09.339Z,10.90
2019-03-04T07:33:09.326Z,10.95
2019-03-04T07:34:09.305Z,10.95
2019-03-04T07:35:09.280Z,11.00
2019-03-04T07:36:09.261Z,10.95
2019-03-04T07:37:09.244Z,11.00
2019-03-04T07:38:09.227Z,11.00
2019-03-04T07:39:09.202Z,11.01
2019-03-04T07:40:09.184Z,11.03
2019-03-04T07:41:09.166Z,10.98
2019-03-04T07:42:09.142Z,10.87
2019-03-04T07:43:09.123Z,10.87
2019-03-04T07:44:09.106Z,10.94
2019-03-04T07:45:09.086Z,10.86
2019-03-04T07:46:09.077Z,10.94
2019-03-04T07:47:09.048Z,11.04
2019-03-04T07:48:09.027Z,11.05
2019-03-04T07:49:09.008Z,11.04
2019-03-04T07:50:08.994Z,11.01
2019-03-04T07:51:08.971Z,10.98
2019-03-04T07:52:08.951Z,10.85
2019-03-04T07:53:08.929Z,10.80
2019-03-04T07:54:08.925Z,10.78
2019-03-04T07:55:08.893Z,10.78
2019-03-04T07:56:08.874Z,10.64
2019-03-04T07:57:08.858Z,10.87
2019-03-04T07:58:08.836Z,11.67
2019-03-04T07:59:08.816Z,12.21
2019-03-04T08:00:08.811Z,12.13
2019-03-04T08:01:08.785Z,12.08
2019-03-04T08:02:08.764Z,11.46
2019-03-04T08:03:08.748Z,11.37
2019-03-04T08:04:08.733Z,11.13
2019-03-04T08:05:08.712Z,11.03
2019-03-04T08:06:08.693Z,11.08
2019-03-04T08:07:08.678Z,10.98
2019-03-04T08:08:08.661Z,11.08
2019-03-04T08:09:08.634Z,10.97
2019-03-04T08:10:08.616Z,11.11
2019-03-04T08:11:08.610Z,11.15
2019-03-04T08:12:08.579Z,11.12
2019-03-04T08:13:08.567Z,11.33
2019-03-04T08:14:08.554Z,11.51
2019-03-04T08:15:08.526Z,11.55
2019-03-04T08:16:08.511Z,12.46
2019-03-04T08:17:08.497Z,12.91
2019-03-04T08:18:08.486Z,12.11
2019-03-04T08:19:08.452Z,12.00
2019-03-04T08:20:08.434Z,11.89
2019-03-04T08:21:08.415Z,11.77
2019-03-04T08:22:08.396Z,11.79
2019-03-04T08:23:10.070Z,11.69
2019-03-04T08:24:08.362Z,11.69
2019-03-04T08:25:08.344Z,11.59
2019-03-04T08:26:08.323Z,11.55
2019-03-04T08:27:08.305Z,11.54
2019-03-04T08:28:08.293Z,11.55
2019-03-04T08:29:08.274Z,11.64
2019-03-04T08:30:08.252Z,11.54
2019-03-04T08:31:08.240Z,11.41
2019-03-04T08:32:08.215Z,11.40
2019-03-04T08:33:08.200Z,11.23
2019-03-04T08:34:09.362Z,11.01
2019-03-04T08:35:08.160Z,11.00
2019-03-04T08:36:08.144Z,10.78
2019-03-04T08:37:08.123Z,10.64
2019-03-04T08:38:08.108Z,10.52
2019-03-04T08:39:08.087Z,10.45
2019-03-04T08:40:08.066Z,10.35
2019-03-04T08:41:08.051Z,10.31
2019-03-04T08:42:08.030Z,10.36
2019-03-04T08:43:08.021Z,10.35
2019-03-04T08:44:07.988Z,10.24
2019-03-04T08:45:07.969Z,10.28
2019-03-04T08:46:07.959Z,10.38
2019-03-04T08:47:07.935Z,10.65
2019-03-04T08:48:07.912Z,10.80
2019-03-04T08:49:07.896Z,10.72
2019-03-04T08:50:07.874Z,10.62
2019-03-04T08:51:07.855Z,10.67
2019-03-04T08:52:07.837Z,10.68
2019-03-04T08:53:07.820Z,10.94
2019-03-04T08:54:07.799Z,11.22
2019-03-04T08:55:07.788Z,11.88
2019-03-04T08:56:07.776Z,12.63
2019-03-04T08:57:07.746Z,12.47
2019-03-04T08:58:07.728Z,12.35
2019-03-04T08:59:07.716Z,12.46
2019-03-04T09:00:07.711Z,12.72
2019-03-04T09:01:07.682Z,13.02
2019-03-04T09:02:07.663Z,12.96
2019-03-04T09:03:07.652Z,12.59
2019-03-04T09:04:07.633Z,12.47
2019-03-04T09:05:07.619Z,13.19
2019-03-04T09:06:07.605Z,13.93
2019-03-04T09:07:07.589Z,13.68
2019-03-04T09:08:07.577Z,14.21
2019-03-04T09:09:07.561Z,13.61
2019-03-04T09:10:07.545Z,13.75
2019-03-04T09:11:07.529Z,13.36
2019-03-04T09:12:07.524Z,13.14
2019-03-04T09:13:07.500Z,12.95
2019-03-04T09:14:07.484Z,12.98
2019-03-04T09:15:07.480Z,13.16
2019-03-04T09:16:07.452Z,12.96
2019-03-04T09:17:10.638Z,12.72
2019-03-04T09:18:07.426Z,13.05
2019-03-04T09:19:07.411Z,12.72
2019-03-04T09:20:07.404Z,12.61
2019-03-04T09:21:07.377Z,12.51
2019-03-04T09:22:07.361Z,12.47
2019-03-04T09:23:07.343Z,12.40
2019-03-04T09:24:07.325Z,12.28
2019-03-04T09:25:07.322Z,12.29
2019-03-04T09:26:07.295Z,12.28
2019-03-04T09:27:07.279Z,12.17
2019-03-04T09:28:07.258Z,12.21
2019-03-04T09:29:07.254Z,12.15
2019-03-04T09:30:07.225Z,12.18
2019-03-04T09:31:07.204Z,12.33
2019-03-04T09:32:07.197Z,12.28
2019-03-04T09:33:07.173Z,12.22
2019-03-04T09:34:07.157Z,12.18
2019-03-04T09:35:07.136Z,12.10
2019-03-04T09:36:07.121Z,12.15
2019-03-04T09:37:07.102Z,12.17
2019-03-04T09:38:07.082Z,12.13
2019-03-04T09:39:07.063Z,12.00
2019-03-04T09:40:07.048Z,11.97
2019-03-04T09:41:07.034Z,11.97
2019-03-04T09:42:07.011Z,11.99
2019-03-04T09:43:06.995Z,12.04
2019-03-04T09:44:06.974Z,12.07
2019-03-04T09:45:06.959Z,12.15
2019-03-04T09:46:06.936Z,12.08
2019-03-04T09:47:06.918Z,12.18
2019-03-04T09:48:06.909Z,12.17
2019-03-04T09:49:06.887Z,12.11
2019-03-04T09:50:06.867Z,12.10
2019-03-04T09:51:06.844Z,12.13
2019-03-04T09:52:06.825Z,12.00
2019-03-04T09:53:06.814Z,12.07
2019-03-04T09:54:06.788Z,12.21
2019-03-04T09:55:06.773Z,12.08
2019-03-04T09:56:06.759Z,12.05
2019-03-04T09:57:06.735Z,12.08
2019-03-04T09:58:06.716Z,12.21
2019-03-04T09:59:06.698Z,12.18
2019-03-04T10:00:06.678Z,12.13
2019-03-04T10:01:06.667Z,12.10
2019-03-04T10:02:06.641Z,12.03
2019-03-04T10:03:06.622Z,11.96
2019-03-04T10:04:06.605Z,11.93
2019-03-04T10:05:06.597Z,11.97
2019-03-04T10:06:06.565Z,11.95
2019-03-04T10:07:06.550Z,11.87
2019-03-04T10:08:06.532Z,11.88
2019-03-04T10:09:06.511Z,11.49
2019-03-04T10:10:06.491Z,11.36
2019-03-04T10:11:06.475Z,11.23
2019-03-04T10:12:06.456Z,11.08
2019-03-04T10:13:06.436Z,11.05
2019-03-04T10:14:06.416Z,11.00
2019-03-04T10:15:08.897Z,10.98
2019-03-04T10:16:06.380Z,11.05
2019-03-04T10:17:06.358Z,11.05
2019-03-04T10:18:06.347Z,11.03
2019-03-04T10:19:06.325Z,11.05
2019-03-04T10:20:06.307Z,10.97
2019-03-04T10:21:06.288Z,10.98
2019-03-04T10:22:06.272Z,10.93
2019-03-04T10:23:06.252Z,10.90
2019-03-04T10:24:06.228Z,10.94
2019-03-04T10:25:06.207Z,10.87
2019-03-04T10:26:06.188Z,10.94
2019-03-04T10:27:06.168Z,10.98
2019-03-04T10:28:06.149Z,11.00
2019-03-04T10:29:06.130Z,10.97
2019-03-04T10:30:06.120Z,11.11
2019-03-04T10:31:06.092Z,11.09
2019-03-04T10:32:06.071Z,11.03
2019-03-04T10:33:06.053Z,11.23
2019-03-04T10:34:06.036Z,11.20
2019-03-04T10:35:06.015Z,11.22
2019-03-04T10:36:06.000Z,11.19
2019-03-04T10:37:05.986Z,11.23
2019-03-04T10:38:05.956Z,11.30
2019-03-04T10:39:05.963Z,11.28
2019-03-04T10:40:05.936Z,11.25
2019-03-04T10:41:05.905Z,11.16
2019-03-04T10:42:05.885Z,11.19
2019-03-04T10:43:05.869Z,11.43
2019-03-04T10:44:05.851Z,11.34
2019-03-04T10:45:05.829Z,11.41
2019-03-04T10:46:05.811Z,11.45
2019-03-04T10:47:05.794Z,11.38
2019-03-04T10:48:05.771Z,11.51
2019-03-04T10:49:05.755Z,11.36
2019-03-04T10:50:05.739Z,11.37
2019-03-04T10:51:05.725Z,11.40
2019-03-04T10:52:05.701Z,11.30
2019-03-04T10:53:05.681Z,11.49
2019-03-04T10:54:05.669Z,11.76
2019-03-04T10:55:05.639Z,12.05
2019-03-04T10:56:05.626Z,11.95
2019-03-04T10:57:05.605Z,11.62
2019-03-04T10:58:05.592Z,11.59
2019-03-04T10:59:05.568Z,11.51
2019-03-04T11:00:05.550Z,11.33
2019-03-04T11:01:05.531Z,11.45
2019-03-04T11:02:05.512Z,11.23
2019-03-04T11:03:05.494Z,11.34
2019-03-04T11:04:05.474Z,11.23
2019-03-04T11:05:05.465Z,11.11
2019-03-04T11:06:05.449Z,11.23
2019-03-04T11:07:05.427Z,11.23
2019-03-04T11:08:05.401Z,11.18
2019-03-04T11:09:05.384Z,11.04
2019-03-04T11:10:05.362Z,11.05
2019-03-04T11:11:05.344Z,11.00
2019-03-04T11:12:05.333Z,11.00
2019-03-04T11:13:05.316Z,10.87
2019-03-04T11:14:05.295Z,10.80
2019-03-04T11:15:05.274Z,10.70
2019-03-04T11:16:05.268Z,10.52
2019-03-04T11:17:05.232Z,10.60
2019-03-04T11:18:05.219Z,10.43
2019-03-04T11:19:05.194Z,10.12
2019-03-04T11:20:05.180Z,9.88
2019-03-04T11:21:05.159Z,9.66
2019-03-04T11:22:05.139Z,9.48
2019-03-04T11:23:05.156Z,9.24
2019-03-04T11:24:05.102Z,9.16
2019-03-04T11:25:05.084Z,9.11
2019-03-04T11:26:05.059Z,9.11
2019-03-04T11:27:05.040Z,9.03
2019-03-04T11:28:05.018Z,9.03
2019-03-04T11:29:05.001Z,8.99
2019-03-04T11:30:04.980Z,8.95
2019-03-04T11:31:04.965Z,8.96
2019-03-04T11:32:04.945Z,8.83
2019-03-04T11:33:04.925Z,8.80
2019-03-04T11:34:04.914Z,8.80
2019-03-04T11:35:04.880Z,8.71
2019-03-04T11:36:04.859Z,8.60
2019-03-04T11:37:04.847Z,8.63
2019-03-04T11:38:04.831Z,8.63
2019-03-04T11:39:04.860Z,8.71
2019-03-04T11:40:04.779Z,8.80
2019-03-04T11:41:04.759Z,8.86
2019-03-04T11:42:04.737Z,8.86
2019-03-04T11:43:04.720Z,8.81
2019-03-04T11:44:04.712Z,8.86
2019-03-04T11:45:04.679Z,8.86
2019-03-04T11:46:04.658Z,8.95
2019-03-04T11:47:04.641Z,8.96
2019-03-04T11:48:04.628Z,8.88
2019-03-04T11:49:04.601Z,8.85
2019-03-04T11:50:04.579Z,8.83
2019-03-04T11:51:04.559Z,8.83
2019-03-04T11:52:04.546Z,8.98
2019-03-04T11:53:04.531Z,9.03
2019-03-04T11:54:04.498Z,9.01
2019-03-04T11:55:04.479Z,8.93
2019-03-04T11:56:04.461Z,9.03
2019-03-04T11:57:04.440Z,9.08
2019-03-04T11:58:04.421Z,9.06
2019-03-04T11:59:04.408Z,8.99
2019-03-04T12:00:04.393Z,8.92
2019-03-04T12:01:04.360Z,8.96
2019-03-04T12:02:04.353Z,8.90
2019-03-04T12:03:04.321Z,9.04
2019-03-04T12:04:04.302Z,9.09
2019-03-04T12:05:04.282Z,9.15
2019-03-04T12:06:04.268Z,9.12
2019-03-04T12:07:04.241Z,9.29
2019-03-04T12:08:04.222Z,9.44
2019-03-04T12:09:04.211Z,9.50
2019-03-04T12:10:04.191Z,9.44
2019-03-04T12:11:04.167Z,9.50
2019-03-04T12:12:04.140Z,9.60
2019-03-04T12:13:04.127Z,9.63
2019-03-04T12:14:04.104Z,9.84
2019-03-04T12:15:04.091Z,9.80
2019-03-04T12:16:04.082Z,9.96
2019-03-04T12:17:04.050Z,10.24
2019-03-04T12:18:04.028Z,10.34
2019-03-04T12:19:04.023Z,10.42
2019-03-04T12:20:03.990Z,10.38
2019-03-04T12:21:03.982Z,10.28
2019-03-04T12:22:03.951Z,10.20
2019-03-04T12:23:03.932Z,10.17
2019-03-04T12:24:03.931Z,10.06
2019-03-04T12:25:03.893Z,9.96
2019-03-04T12:26:03.877Z,9.91
2019-03-04T12:27:03.858Z,9.73
2019-03-04T12:28:03.836Z,9.62
2019-03-04T12:29:03.826Z,9.63
2019-03-04T12:30:03.819Z,9.66
2019-03-04T12:31:03.777Z,9.57
2019-03-04T12:32:03.759Z,9.75
2019-03-04T12:33:03.758Z,9.75
2019-03-04T12:34:03.720Z,9.70
2019-03-04T12:35:03.701Z,9.83
2019-03-04T12:36:03.685Z,9.87
2019-03-04T12:37:03.662Z,9.91
2019-03-04T12:38:03.644Z,9.90
2019-03-04T12:39:03.627Z,9.98
2019-03-04T12:40:03.605Z,10.06
2019-03-04T12:41:03.587Z,10.09
2019-03-04T12:42:03.567Z,10.10
2019-03-04T12:43:03.558Z,10.14
2019-03-04T12:44:03.528Z,10.31
2019-03-04T12:45:03.509Z,10.31
2019-03-04T12:46:03.491Z,10.35
2019-03-04T12:47:03.474Z,10.39
2019-03-04T12:48:03.462Z,10.38
2019-03-04T12:49:03.440Z,10.26
2019-03-04T12:50:03.421Z,10.12
2019-03-04T12:51:03.395Z,10.20
2019-03-04T12:52:03.378Z,10.26
2019-03-04T12:53:03.369Z,10.21
2019-03-04T12:54:03.351Z,10.41
2019-03-04T12:55:03.324Z,10.42